Meteo Giornale » Osservazioni meteo Svizzera » Payerne

ore: 03:20 - Osservazioni Meteo Payerne
Lat. 46° 49' N Lon. 6° 57' E Alt. 490 metri s.l.m.

poco_nuvoloso Europe/Zurich

16 °C

Poco Nuvoloso

Temp. 24 Ore

13 °C

29 °C

Nord

3.7 Km/h

Dew point 14 °C

Umidità 87 %

Visibilità  10 Km

Il sole sorge alle ore 06:32

Il sole tramonta alle ore 20:39

Data e Ora Cielo e Fenomeni T °C DP °C Um. % Pres. hPa Vis. km Vento km/h
Oggi h: 03:20 poco_nuvoloso Poco Nuvoloso 16 14 87 1013 10 N 3.7
Oggi h: 02:20 poco_nuvoloso Poco Nuvoloso 18 15 82 1013 10 N 3.7
Oggi h: 01:50 poco_nuvoloso Poco Nuvoloso 18 15 82 1014 10 N 0
Oggi h: 01:20 molto_nuvoloso Molto Nuvoloso 19 15 77 1014 10 N 0
Oggi h: 00:20 molto_nuvoloso Molto Nuvoloso 19 16 82 1014 10 N 1.8
Ieri h: 23:20 molto_nuvoloso Molto Nuvoloso 20 16 77 1014 10 N 0
Ieri h: 22:50 molto_nuvoloso Molto Nuvoloso 21 15 68 1013 10 N 0
Ieri h: 22:20 molto_nuvoloso Molto Nuvoloso 22 15 64 1013 10 N 0
Ieri h: 21:50 molto_nuvoloso Molto Nuvoloso 22 15 64 1013 10 N 1.8
Ieri h: 21:20 coperto Coperto 23 15 60 1013 10 N 0
Ieri h: 20:50 coperto Coperto 24 15 57 1013 10 N 0
Ieri h: 20:20 molto_nuvoloso Molto Nuvoloso 25 14 50 1013 10 N 1.8
Ieri h: 19:50 molto_nuvoloso Molto Nuvoloso 27 13 42 1013 10 N 5.5
Ieri h: 19:20 nuvoloso Nuvoloso 27 12 39 1014 10 O/SO 11.1
Ieri h: 18:50 poco_nuvoloso Poco Nuvoloso 27 12 39 1014 10 O/SO 14.8
Ieri h: 18:20 molto_nuvoloso Molto Nuvoloso 29 10 30 1014 10 SO 20.3
Ieri h: 17:50 molto_nuvoloso Molto Nuvoloso 28 10 32 1014 10 SO 20.3
Ieri h: 17:20 nuvoloso Nuvoloso 28 10 32 1014 10 SO 22.2
Ieri h: 16:50 molto_nuvoloso Molto Nuvoloso 27 10 34 1014 10 SO 22.2
Ieri h: 16:20 nuvoloso Nuvoloso 27 10 34 1014 10 O/SO 27.8
Ieri h: 15:50 poco_nuvoloso Poco Nuvoloso 27 9 32 1014 10 O/SO 25.9
Ieri h: 15:20 poco_nuvoloso Poco Nuvoloso 27 11 36 1014 10 SO 16.7
Ieri h: 14:20 poco_nuvoloso Poco Nuvoloso 25 13 47 1015 10 N 3.7
Ieri h: 13:20 poco_nuvoloso Poco Nuvoloso 25 14 50 1016 10 O 9.3
Ieri h: 12:50 poco_nuvoloso Poco Nuvoloso 25 12 44 1016 10 O/SO 13
Ieri h: 12:20 poco_nuvoloso Poco Nuvoloso 24 12 47 1016 10 SO 11.1
Ieri h: 11:50 poco_nuvoloso Poco Nuvoloso 22 14 60 1016 10 N 3.7
Ieri h: 11:20 poco_nuvoloso Poco Nuvoloso 21 14 64 1017 10 N 3.7
Ieri h: 10:50 poco_nuvoloso Poco Nuvoloso 20 14 68 1016 10 N 0
Ieri h: 10:20 poco_nuvoloso Poco Nuvoloso 20 14 68 1017 10 N 0
Ieri h: 09:20 poco_nuvoloso Poco Nuvoloso 18 13 72 1016 10 N 0
Ieri h: 08:50 poco_nuvoloso Poco Nuvoloso 16 13 82 1017 10 N 0
Ieri h: 08:20 nuvoloso Nuvoloso 15 12 82 1017 10 N 0
Ieri h: 07:50 nuvoloso Nuvoloso 14 12 87 1017 10 N 0
Ieri h: 07:20 molto_nuvoloso Molto Nuvoloso 14 11 82 1016 10 N 0
Ieri h: 06:50 molto_nuvoloso Molto Nuvoloso 13 11 87 1016 10 N 0
Ieri h: 06:20 molto_nuvoloso Molto Nuvoloso 13 11 87 1016 10 N 0
Ieri h: 05:50 molto_nuvoloso Molto Nuvoloso 13 11 87 1016 10 N 0
Ieri h: 05:20 molto_nuvoloso Molto Nuvoloso 13 11 87 1016 10 N 0
Ieri h: 04:50 molto_nuvoloso Molto Nuvoloso 13 11 87 1016 10 N 0
Ieri h: 04:20 poco_nuvoloso Poco Nuvoloso 13 11 87 1016 10 N 3.7